sensor_id;sensor_type;location;lat;lon;timestamp;P1;durP1;ratioP1;P2;durP2;ratioP2
85303;SDS011;75708;47.930;13.782;2024-02-21T00:02:12;1.88;;;0.60;;
85303;SDS011;75708;47.930;13.782;2024-02-21T00:04:37;2.20;;;0.63;;
85303;SDS011;75708;47.930;13.782;2024-02-21T00:07:04;6.30;;;0.57;;
85303;SDS011;75708;47.930;13.782;2024-02-21T00:09:30;5.05;;;0.88;;
85303;SDS011;75708;47.930;13.782;2024-02-21T00:11:55;2.63;;;0.40;;
85303;SDS011;75708;47.930;13.782;2024-02-21T00:14:21;3.70;;;0.65;;
85303;SDS011;75708;47.930;13.782;2024-02-21T00:16:47;2.97;;;0.40;;
85303;SDS011;75708;47.930;13.782;2024-02-21T00:19:12;3.33;;;0.45;;
85303;SDS011;75708;47.930;13.782;2024-02-21T00:21:39;3.15;;;0.60;;
85303;SDS011;75708;47.930;13.782;2024-02-21T00:24:05;4.93;;;0.63;;
85303;SDS011;75708;47.930;13.782;2024-02-21T00:26:31;3.85;;;0.60;;
85303;SDS011;75708;47.930;13.782;2024-02-21T00:28:56;6.95;;;1.00;;
85303;SDS011;75708;47.930;13.782;2024-02-21T00:31:22;2.25;;;0.43;;
85303;SDS011;75708;47.930;13.782;2024-02-21T00:33:47;2.33;;;0.50;;
85303;SDS011;75708;47.930;13.782;2024-02-21T00:36:13;0.73;;;0.32;;
85303;SDS011;75708;47.930;13.782;2024-02-21T00:38:39;2.55;;;0.68;;
85303;SDS011;75708;47.930;13.782;2024-02-21T00:41:05;1.88;;;0.80;;
85303;SDS011;75708;47.930;13.782;2024-02-21T00:43:30;3.33;;;0.70;;
85303;SDS011;75708;47.930;13.782;2024-02-21T00:45:56;3.60;;;0.70;;
85303;SDS011;75708;47.930;13.782;2024-02-21T00:48:22;0.90;;;0.40;;
85303;SDS011;75708;47.930;13.782;2024-02-21T00:50:47;3.90;;;0.80;;
85303;SDS011;75708;47.930;13.782;2024-02-21T00:53:13;3.63;;;0.82;;
85303;SDS011;75708;47.930;13.782;2024-02-21T00:55:38;6.05;;;0.65;;
85303;SDS011;75708;47.930;13.782;2024-02-21T00:58:05;4.50;;;0.68;;
85303;SDS011;75708;47.930;13.782;2024-02-21T01:00:31;2.63;;;0.70;;
85303;SDS011;75708;47.930;13.782;2024-02-21T01:02:57;1.63;;;0.47;;
85303;SDS011;75708;47.930;13.782;2024-02-21T01:05:22;3.17;;;0.50;;
85303;SDS011;75708;47.930;13.782;2024-02-21T01:07:48;2.78;;;0.82;;
85303;SDS011;75708;47.930;13.782;2024-02-21T01:10:13;1.50;;;0.57;;
85303;SDS011;75708;47.930;13.782;2024-02-21T01:12:39;2.40;;;0.60;;
85303;SDS011;75708;47.930;13.782;2024-02-21T01:15:04;4.18;;;0.50;;
85303;SDS011;75708;47.930;13.782;2024-02-21T01:17:30;2.65;;;0.47;;
85303;SDS011;75708;47.930;13.782;2024-02-21T01:19:56;3.22;;;0.57;;
85303;SDS011;75708;47.930;13.782;2024-02-21T01:22:21;1.90;;;0.65;;
85303;SDS011;75708;47.930;13.782;2024-02-21T01:24:47;1.52;;;0.40;;
85303;SDS011;75708;47.930;13.782;2024-02-21T01:27:12;3.03;;;0.80;;
85303;SDS011;75708;47.930;13.782;2024-02-21T01:29:38;2.97;;;0.47;;
85303;SDS011;75708;47.930;13.782;2024-02-21T01:32:03;3.65;;;0.77;;
85303;SDS011;75708;47.930;13.782;2024-02-21T01:34:29;3.15;;;0.55;;
85303;SDS011;75708;47.930;13.782;2024-02-21T01:36:55;2.53;;;0.57;;
85303;SDS011;75708;47.930;13.782;2024-02-21T01:39:20;3.13;;;0.50;;
85303;SDS011;75708;47.930;13.782;2024-02-21T01:41:46;1.75;;;0.32;;
85303;SDS011;75708;47.930;13.782;2024-02-21T01:44:11;1.25;;;0.50;;
85303;SDS011;75708;47.930;13.782;2024-02-21T01:46:37;3.92;;;0.73;;
85303;SDS011;75708;47.930;13.782;2024-02-21T01:49:03;3.60;;;0.80;;
85303;SDS011;75708;47.930;13.782;2024-02-21T01:51:29;2.13;;;0.43;;
85303;SDS011;75708;47.930;13.782;2024-02-21T01:53:56;1.60;;;0.60;;
85303;SDS011;75708;47.930;13.782;2024-02-21T01:56:23;1.85;;;0.50;;
85303;SDS011;75708;47.930;13.782;2024-02-21T01:58:49;4.10;;;0.88;;
85303;SDS011;75708;47.930;13.782;2024-02-21T02:01:16;1.10;;;0.50;;
85303;SDS011;75708;47.930;13.782;2024-02-21T02:03:42;7.30;;;0.80;;
85303;SDS011;75708;47.930;13.782;2024-02-21T02:06:09;2.03;;;0.57;;
85303;SDS011;75708;47.930;13.782;2024-02-21T02:08:35;1.45;;;0.60;;
85303;SDS011;75708;47.930;13.782;2024-02-21T02:11:01;1.05;;;0.45;;
85303;SDS011;75708;47.930;13.782;2024-02-21T02:13:27;1.55;;;0.60;;
85303;SDS011;75708;47.930;13.782;2024-02-21T02:15:52;2.67;;;0.57;;
85303;SDS011;75708;47.930;13.782;2024-02-21T02:18:19;1.23;;;0.40;;
85303;SDS011;75708;47.930;13.782;2024-02-21T02:20:45;1.40;;;0.50;;
85303;SDS011;75708;47.930;13.782;2024-02-21T02:25:51;2.70;;;0.90;;
85303;SDS011;75708;47.930;13.782;2024-02-21T02:28:17;1.98;;;0.68;;
85303;SDS011;75708;47.930;13.782;2024-02-21T02:30:42;7.97;;;0.90;;
85303;SDS011;75708;47.930;13.782;2024-02-21T02:33:08;3.67;;;0.55;;
85303;SDS011;75708;47.930;13.782;2024-02-21T02:35:34;2.00;;;0.28;;
85303;SDS011;75708;47.930;13.782;2024-02-21T02:38:01;2.65;;;0.70;;
85303;SDS011;75708;47.930;13.782;2024-02-21T02:40:33;5.47;;;1.02;;
85303;SDS011;75708;47.930;13.782;2024-02-21T02:42:59;1.83;;;0.52;;
85303;SDS011;75708;47.930;13.782;2024-02-21T02:45:25;1.70;;;0.90;;
85303;SDS011;75708;47.930;13.782;2024-02-21T02:47:52;2.25;;;0.65;;
85303;SDS011;75708;47.930;13.782;2024-02-21T02:50:22;1.50;;;0.50;;
85303;SDS011;75708;47.930;13.782;2024-02-21T02:55:17;2.33;;;0.70;;
85303;SDS011;75708;47.930;13.782;2024-02-21T02:57:42;3.50;;;0.95;;
85303;SDS011;75708;47.930;13.782;2024-02-21T03:00:08;1.88;;;0.70;;
85303;SDS011;75708;47.930;13.782;2024-02-21T03:02:37;3.17;;;0.52;;
85303;SDS011;75708;47.930;13.782;2024-02-21T03:05:10;1.13;;;0.40;;
85303;SDS011;75708;47.930;13.782;2024-02-21T03:07:40;3.83;;;0.43;;
85303;SDS011;75708;47.930;13.782;2024-02-21T03:10:06;4.07;;;1.30;;
85303;SDS011;75708;47.930;13.782;2024-02-21T03:12:32;1.75;;;0.52;;
85303;SDS011;75708;47.930;13.782;2024-02-21T03:14:57;3.00;;;0.70;;
85303;SDS011;75708;47.930;13.782;2024-02-21T03:17:23;5.10;;;1.35;;
85303;SDS011;75708;47.930;13.782;2024-02-21T03:19:49;2.90;;;0.60;;
85303;SDS011;75708;47.930;13.782;2024-02-21T03:22:15;2.30;;;0.52;;
85303;SDS011;75708;47.930;13.782;2024-02-21T03:24:41;3.47;;;0.65;;
85303;SDS011;75708;47.930;13.782;2024-02-21T03:27:07;4.20;;;0.82;;
85303;SDS011;75708;47.930;13.782;2024-02-21T03:29:33;1.92;;;0.60;;
85303;SDS011;75708;47.930;13.782;2024-02-21T03:31:59;2.47;;;0.57;;
85303;SDS011;75708;47.930;13.782;2024-02-21T03:34:24;5.80;;;0.93;;
85303;SDS011;75708;47.930;13.782;2024-02-21T03:36:50;3.10;;;0.50;;
85303;SDS011;75708;47.930;13.782;2024-02-21T03:39:15;2.78;;;0.73;;
85303;SDS011;75708;47.930;13.782;2024-02-21T03:41:41;1.40;;;0.47;;
85303;SDS011;75708;47.930;13.782;2024-02-21T03:44:06;4.22;;;0.50;;
85303;SDS011;75708;47.930;13.782;2024-02-21T03:46:32;4.57;;;0.68;;
85303;SDS011;75708;47.930;13.782;2024-02-21T03:48:57;1.98;;;0.80;;
85303;SDS011;75708;47.930;13.782;2024-02-21T03:51:23;1.00;;;0.50;;
85303;SDS011;75708;47.930;13.782;2024-02-21T03:53:49;3.75;;;1.05;;
85303;SDS011;75708;47.930;13.782;2024-02-21T03:56:14;1.42;;;0.60;;
85303;SDS011;75708;47.930;13.782;2024-02-21T03:58:40;1.40;;;0.38;;
85303;SDS011;75708;47.930;13.782;2024-02-21T04:01:05;3.30;;;0.65;;
85303;SDS011;75708;47.930;13.782;2024-02-21T04:03:31;1.90;;;0.40;;
85303;SDS011;75708;47.930;13.782;2024-02-21T04:05:56;6.20;;;0.70;;
85303;SDS011;75708;47.930;13.782;2024-02-21T04:08:22;2.13;;;0.80;;
85303;SDS011;75708;47.930;13.782;2024-02-21T04:10:48;2.35;;;0.73;;
85303;SDS011;75708;47.930;13.782;2024-02-21T04:13:13;4.93;;;0.60;;
85303;SDS011;75708;47.930;13.782;2024-02-21T04:15:39;0.70;;;0.22;;
85303;SDS011;75708;47.930;13.782;2024-02-21T04:18:05;2.70;;;0.50;;
85303;SDS011;75708;47.930;13.782;2024-02-21T04:20:30;2.83;;;0.68;;
85303;SDS011;75708;47.930;13.782;2024-02-21T04:22:56;4.00;;;0.95;;
85303;SDS011;75708;47.930;13.782;2024-02-21T04:25:22;4.68;;;1.38;;
85303;SDS011;75708;47.930;13.782;2024-02-21T04:27:47;3.70;;;0.75;;
85303;SDS011;75708;47.930;13.782;2024-02-21T04:30:13;5.07;;;0.80;;
85303;SDS011;75708;47.930;13.782;2024-02-21T04:32:39;2.85;;;0.52;;
85303;SDS011;75708;47.930;13.782;2024-02-21T04:35:05;4.18;;;0.80;;
85303;SDS011;75708;47.930;13.782;2024-02-21T04:37:32;6.20;;;0.90;;
85303;SDS011;75708;47.930;13.782;2024-02-21T04:39:57;3.15;;;0.70;;
85303;SDS011;75708;47.930;13.782;2024-02-21T04:42:23;1.27;;;0.60;;
85303;SDS011;75708;47.930;13.782;2024-02-21T04:44:48;3.30;;;0.90;;
85303;SDS011;75708;47.930;13.782;2024-02-21T04:47:14;2.40;;;0.63;;
85303;SDS011;75708;47.930;13.782;2024-02-21T04:49:39;3.63;;;0.82;;
85303;SDS011;75708;47.930;13.782;2024-02-21T04:52:05;3.58;;;0.70;;
85303;SDS011;75708;47.930;13.782;2024-02-21T04:54:30;6.53;;;1.00;;
85303;SDS011;75708;47.930;13.782;2024-02-21T04:56:56;2.55;;;0.90;;
85303;SDS011;75708;47.930;13.782;2024-02-21T04:59:22;4.90;;;1.25;;
85303;SDS011;75708;47.930;13.782;2024-02-21T05:01:47;4.63;;;0.77;;
85303;SDS011;75708;47.930;13.782;2024-02-21T05:04:13;3.60;;;0.82;;
85303;SDS011;75708;47.930;13.782;2024-02-21T05:06:41;2.88;;;0.70;;
85303;SDS011;75708;47.930;13.782;2024-02-21T05:09:07;1.80;;;0.50;;
85303;SDS011;75708;47.930;13.782;2024-02-21T05:11:34;3.30;;;0.50;;
85303;SDS011;75708;47.930;13.782;2024-02-21T05:14:00;3.25;;;1.40;;
85303;SDS011;75708;47.930;13.782;2024-02-21T05:16:25;4.28;;;0.90;;
85303;SDS011;75708;47.930;13.782;2024-02-21T05:18:51;4.55;;;1.00;;
85303;SDS011;75708;47.930;13.782;2024-02-21T05:21:17;3.97;;;0.73;;
85303;SDS011;75708;47.930;13.782;2024-02-21T05:23:42;2.83;;;1.00;;
85303;SDS011;75708;47.930;13.782;2024-02-21T05:26:08;1.38;;;0.35;;
85303;SDS011;75708;47.930;13.782;2024-02-21T05:28:34;6.78;;;0.90;;
85303;SDS011;75708;47.930;13.782;2024-02-21T05:30:59;3.05;;;0.70;;
85303;SDS011;75708;47.930;13.782;2024-02-21T05:33:26;5.70;;;1.30;;
85303;SDS011;75708;47.930;13.782;2024-02-21T05:35:51;4.45;;;0.70;;
85303;SDS011;75708;47.930;13.782;2024-02-21T05:38:17;2.00;;;0.55;;
85303;SDS011;75708;47.930;13.782;2024-02-21T05:40:44;2.58;;;0.70;;
85303;SDS011;75708;47.930;13.782;2024-02-21T05:43:10;5.10;;;0.70;;
85303;SDS011;75708;47.930;13.782;2024-02-21T05:45:36;1.60;;;0.60;;
85303;SDS011;75708;47.930;13.782;2024-02-21T05:48:02;5.05;;;0.90;;
85303;SDS011;75708;47.930;13.782;2024-02-21T05:50:28;4.05;;;0.75;;
85303;SDS011;75708;47.930;13.782;2024-02-21T05:52:54;6.10;;;0.73;;
85303;SDS011;75708;47.930;13.782;2024-02-21T05:55:20;5.90;;;0.95;;
85303;SDS011;75708;47.930;13.782;2024-02-21T05:57:46;3.03;;;0.90;;
85303;SDS011;75708;47.930;13.782;2024-02-21T06:00:11;1.65;;;0.82;;
85303;SDS011;75708;47.930;13.782;2024-02-21T06:02:38;1.15;;;0.47;;
85303;SDS011;75708;47.930;13.782;2024-02-21T06:05:03;4.50;;;0.75;;
85303;SDS011;75708;47.930;13.782;2024-02-21T06:07:32;2.33;;;0.50;;
85303;SDS011;75708;47.930;13.782;2024-02-21T06:09:58;4.45;;;0.70;;
85303;SDS011;75708;47.930;13.782;2024-02-21T06:12:24;8.27;;;1.17;;
85303;SDS011;75708;47.930;13.782;2024-02-21T06:14:49;5.18;;;0.95;;
85303;SDS011;75708;47.930;13.782;2024-02-21T06:17:15;5.55;;;0.73;;
85303;SDS011;75708;47.930;13.782;2024-02-21T06:19:41;4.25;;;1.00;;
85303;SDS011;75708;47.930;13.782;2024-02-21T06:22:08;3.63;;;1.17;;
85303;SDS011;75708;47.930;13.782;2024-02-21T06:24:36;4.30;;;0.82;;
85303;SDS011;75708;47.930;13.782;2024-02-21T06:27:05;2.00;;;0.70;;
85303;SDS011;75708;47.930;13.782;2024-02-21T06:29:34;2.55;;;0.85;;
85303;SDS011;75708;47.930;13.782;2024-02-21T06:32:00;4.18;;;1.05;;
85303;SDS011;75708;47.930;13.782;2024-02-21T06:34:26;5.53;;;1.20;;
85303;SDS011;75708;47.930;13.782;2024-02-21T06:36:52;1.27;;;0.68;;
85303;SDS011;75708;47.930;13.782;2024-02-21T06:39:17;5.63;;;0.98;;
85303;SDS011;75708;47.930;13.782;2024-02-21T06:41:43;6.82;;;1.10;;
85303;SDS011;75708;47.930;13.782;2024-02-21T06:44:09;6.57;;;1.00;;
85303;SDS011;75708;47.930;13.782;2024-02-21T06:46:34;3.03;;;1.00;;
85303;SDS011;75708;47.930;13.782;2024-02-21T06:49:01;1.65;;;0.80;;
85303;SDS011;75708;47.930;13.782;2024-02-21T06:51:30;5.90;;;1.35;;
85303;SDS011;75708;47.930;13.782;2024-02-21T06:53:57;4.65;;;1.30;;
85303;SDS011;75708;47.930;13.782;2024-02-21T06:56:23;4.88;;;1.20;;
85303;SDS011;75708;47.930;13.782;2024-02-21T06:58:54;9.50;;;0.90;;
85303;SDS011;75708;47.930;13.782;2024-02-21T07:01:22;5.35;;;1.45;;
85303;SDS011;75708;47.930;13.782;2024-02-21T07:03:48;5.43;;;1.17;;
85303;SDS011;75708;47.930;13.782;2024-02-21T07:06:14;8.82;;;1.55;;
85303;SDS011;75708;47.930;13.782;2024-02-21T07:08:39;6.80;;;1.95;;
85303;SDS011;75708;47.930;13.782;2024-02-21T07:11:05;5.72;;;1.27;;
85303;SDS011;75708;47.930;13.782;2024-02-21T07:13:31;8.60;;;1.60;;
85303;SDS011;75708;47.930;13.782;2024-02-21T07:15:57;8.88;;;1.88;;
85303;SDS011;75708;47.930;13.782;2024-02-21T07:18:23;11.88;;;1.83;;
85303;SDS011;75708;47.930;13.782;2024-02-21T07:20:50;15.57;;;2.50;;
85303;SDS011;75708;47.930;13.782;2024-02-21T07:23:16;22.23;;;2.58;;
85303;SDS011;75708;47.930;13.782;2024-02-21T07:25:42;29.60;;;3.55;;
85303;SDS011;75708;47.930;13.782;2024-02-21T07:28:07;9.85;;;2.03;;
85303;SDS011;75708;47.930;13.782;2024-02-21T07:30:33;8.82;;;1.67;;
85303;SDS011;75708;47.930;13.782;2024-02-21T07:32:59;3.10;;;1.17;;
85303;SDS011;75708;47.930;13.782;2024-02-21T07:35:24;3.75;;;0.95;;
85303;SDS011;75708;47.930;13.782;2024-02-21T07:37:50;5.13;;;1.10;;
85303;SDS011;75708;47.930;13.782;2024-02-21T07:40:16;6.20;;;1.10;;
85303;SDS011;75708;47.930;13.782;2024-02-21T07:42:42;5.20;;;1.10;;
85303;SDS011;75708;47.930;13.782;2024-02-21T07:45:08;9.02;;;1.60;;
85303;SDS011;75708;47.930;13.782;2024-02-21T07:47:35;7.20;;;1.30;;
85303;SDS011;75708;47.930;13.782;2024-02-21T07:50:01;8.93;;;1.58;;
85303;SDS011;75708;47.930;13.782;2024-02-21T07:52:27;6.68;;;1.50;;
85303;SDS011;75708;47.930;13.782;2024-02-21T07:54:53;13.35;;;1.85;;
85303;SDS011;75708;47.930;13.782;2024-02-21T07:57:19;7.38;;;0.90;;
85303;SDS011;75708;47.930;13.782;2024-02-21T07:59:44;9.75;;;1.60;;
85303;SDS011;75708;47.930;13.782;2024-02-21T08:02:12;8.25;;;1.35;;
85303;SDS011;75708;47.930;13.782;2024-02-21T08:04:38;4.30;;;0.90;;
85303;SDS011;75708;47.930;13.782;2024-02-21T08:07:04;6.03;;;1.42;;
85303;SDS011;75708;47.930;13.782;2024-02-21T08:09:29;5.35;;;1.45;;
85303;SDS011;75708;47.930;13.782;2024-02-21T08:11:55;6.60;;;1.17;;
85303;SDS011;75708;47.930;13.782;2024-02-21T08:14:21;4.28;;;1.20;;
85303;SDS011;75708;47.930;13.782;2024-02-21T08:16:47;3.17;;;0.90;;
85303;SDS011;75708;47.930;13.782;2024-02-21T08:19:13;2.25;;;0.80;;
85303;SDS011;75708;47.930;13.782;2024-02-21T08:21:39;2.38;;;1.02;;
85303;SDS011;75708;47.930;13.782;2024-02-21T08:24:04;2.55;;;1.25;;
85303;SDS011;75708;47.930;13.782;2024-02-21T08:26:31;1.98;;;0.70;;
85303;SDS011;75708;47.930;13.782;2024-02-21T08:28:57;2.97;;;0.98;;
85303;SDS011;75708;47.930;13.782;2024-02-21T08:31:25;2.25;;;0.60;;
85303;SDS011;75708;47.930;13.782;2024-02-21T08:33:56;1.98;;;1.25;;
85303;SDS011;75708;47.930;13.782;2024-02-21T08:36:28;5.97;;;0.68;;
85303;SDS011;75708;47.930;13.782;2024-02-21T08:38:57;3.80;;;0.60;;
85303;SDS011;75708;47.930;13.782;2024-02-21T08:41:24;5.32;;;0.90;;
85303;SDS011;75708;47.930;13.782;2024-02-21T08:43:50;3.25;;;0.70;;
85303;SDS011;75708;47.930;13.782;2024-02-21T08:46:16;2.00;;;0.68;;
85303;SDS011;75708;47.930;13.782;2024-02-21T08:48:42;2.03;;;0.65;;
85303;SDS011;75708;47.930;13.782;2024-02-21T08:51:08;4.97;;;0.50;;
85303;SDS011;75708;47.930;13.782;2024-02-21T08:53:34;2.63;;;0.82;;
85303;SDS011;75708;47.930;13.782;2024-02-21T08:55:59;3.70;;;0.75;;
85303;SDS011;75708;47.930;13.782;2024-02-21T08:58:25;5.40;;;0.80;;
85303;SDS011;75708;47.930;13.782;2024-02-21T09:00:51;3.97;;;0.80;;
85303;SDS011;75708;47.930;13.782;2024-02-21T09:03:17;1.65;;;0.57;;
85303;SDS011;75708;47.930;13.782;2024-02-21T09:05:45;4.88;;;1.25;;
85303;SDS011;75708;47.930;13.782;2024-02-21T09:08:11;4.97;;;0.90;;
85303;SDS011;75708;47.930;13.782;2024-02-21T09:10:37;3.45;;;0.75;;
85303;SDS011;75708;47.930;13.782;2024-02-21T09:13:04;5.28;;;0.70;;
85303;SDS011;75708;47.930;13.782;2024-02-21T09:15:31;2.33;;;0.63;;
85303;SDS011;75708;47.930;13.782;2024-02-21T09:17:57;2.47;;;0.75;;
85303;SDS011;75708;47.930;13.782;2024-02-21T09:20:22;6.38;;;0.95;;
85303;SDS011;75708;47.930;13.782;2024-02-21T09:22:48;4.80;;;0.70;;
85303;SDS011;75708;47.930;13.782;2024-02-21T09:25:13;3.70;;;0.60;;
85303;SDS011;75708;47.930;13.782;2024-02-21T09:27:39;2.53;;;0.70;;
85303;SDS011;75708;47.930;13.782;2024-02-21T09:30:05;1.92;;;0.52;;
85303;SDS011;75708;47.930;13.782;2024-02-21T09:32:33;3.42;;;0.50;;
85303;SDS011;75708;47.930;13.782;2024-02-21T09:34:58;3.63;;;0.68;;
85303;SDS011;75708;47.930;13.782;2024-02-21T09:37:24;3.45;;;0.85;;
85303;SDS011;75708;47.930;13.782;2024-02-21T09:39:49;4.97;;;0.40;;
85303;SDS011;75708;47.930;13.782;2024-02-21T09:42:19;3.13;;;0.60;;
85303;SDS011;75708;47.930;13.782;2024-02-21T09:47:16;3.22;;;0.90;;
85303;SDS011;75708;47.930;13.782;2024-02-21T09:49:47;3.88;;;0.70;;
85303;SDS011;75708;47.930;13.782;2024-02-21T09:52:13;2.08;;;0.52;;
85303;SDS011;75708;47.930;13.782;2024-02-21T09:54:41;7.40;;;0.63;;
85303;SDS011;75708;47.930;13.782;2024-02-21T09:57:09;2.25;;;0.82;;
85303;SDS011;75708;47.930;13.782;2024-02-21T09:59:35;3.83;;;0.80;;
85303;SDS011;75708;47.930;13.782;2024-02-21T10:02:02;3.00;;;0.50;;
85303;SDS011;75708;47.930;13.782;2024-02-21T10:04:28;2.03;;;0.50;;
85303;SDS011;75708;47.930;13.782;2024-02-21T10:06:54;3.15;;;0.60;;
85303;SDS011;75708;47.930;13.782;2024-02-21T10:09:21;4.45;;;0.80;;
85303;SDS011;75708;47.930;13.782;2024-02-21T10:11:52;5.32;;;0.95;;
85303;SDS011;75708;47.930;13.782;2024-02-21T10:14:18;4.85;;;1.02;;
85303;SDS011;75708;47.930;13.782;2024-02-21T10:17:02;6.00;;;1.00;;
85303;SDS011;75708;47.930;13.782;2024-02-21T10:19:30;4.85;;;0.52;;
85303;SDS011;75708;47.930;13.782;2024-02-21T10:22:03;5.65;;;1.23;;
85303;SDS011;75708;47.930;13.782;2024-02-21T10:24:35;4.82;;;0.70;;
85303;SDS011;75708;47.930;13.782;2024-02-21T10:27:06;12.20;;;1.77;;
85303;SDS011;75708;47.930;13.782;2024-02-21T10:29:38;3.22;;;0.60;;
85303;SDS011;75708;47.930;13.782;2024-02-21T10:32:09;6.28;;;0.80;;
85303;SDS011;75708;47.930;13.782;2024-02-21T10:34:39;3.90;;;0.90;;
85303;SDS011;75708;47.930;13.782;2024-02-21T10:37:06;2.17;;;0.80;;
85303;SDS011;75708;47.930;13.782;2024-02-21T10:39:33;2.58;;;0.77;;
85303;SDS011;75708;47.930;13.782;2024-02-21T10:42:01;2.42;;;0.70;;
85303;SDS011;75708;47.930;13.782;2024-02-21T10:44:29;2.08;;;0.70;;
85303;SDS011;75708;47.930;13.782;2024-02-21T10:46:56;3.13;;;0.80;;
85303;SDS011;75708;47.930;13.782;2024-02-21T10:49:23;1.27;;;0.68;;
85303;SDS011;75708;47.930;13.782;2024-02-21T10:52:06;3.47;;;1.00;;
85303;SDS011;75708;47.930;13.782;2024-02-21T10:54:39;1.77;;;0.80;;
85303;SDS011;75708;47.930;13.782;2024-02-21T10:57:12;3.17;;;0.80;;
85303;SDS011;75708;47.930;13.782;2024-02-21T10:59:39;2.00;;;0.80;;
85303;SDS011;75708;47.930;13.782;2024-02-21T11:02:05;3.65;;;1.00;;
85303;SDS011;75708;47.930;13.782;2024-02-21T11:04:31;3.40;;;0.73;;
85303;SDS011;75708;47.930;13.782;2024-02-21T11:07:01;2.08;;;0.80;;
85303;SDS011;75708;47.930;13.782;2024-02-21T11:09:32;4.97;;;1.27;;
85303;SDS011;75708;47.930;13.782;2024-02-21T11:11:58;3.95;;;0.80;;
85303;SDS011;75708;47.930;13.782;2024-02-21T11:14:28;2.95;;;0.90;;
85303;SDS011;75708;47.930;13.782;2024-02-21T11:16:57;3.88;;;1.10;;
85303;SDS011;75708;47.930;13.782;2024-02-21T11:19:27;2.35;;;0.70;;
85303;SDS011;75708;47.930;13.782;2024-02-21T11:21:54;2.42;;;0.90;;
85303;SDS011;75708;47.930;13.782;2024-02-21T11:26:53;3.00;;;0.98;;
85303;SDS011;75708;47.930;13.782;2024-02-21T11:29:25;3.22;;;1.00;;
85303;SDS011;75708;47.930;13.782;2024-02-21T11:31:51;2.72;;;0.80;;
85303;SDS011;75708;47.930;13.782;2024-02-21T11:34:18;4.05;;;1.00;;
85303;SDS011;75708;47.930;13.782;2024-02-21T11:36:47;3.80;;;0.93;;
85303;SDS011;75708;47.930;13.782;2024-02-21T11:39:23;2.35;;;0.75;;
85303;SDS011;75708;47.930;13.782;2024-02-21T11:42:02;2.10;;;0.77;;
85303;SDS011;75708;47.930;13.782;2024-02-21T11:44:29;2.72;;;0.70;;
85303;SDS011;75708;47.930;13.782;2024-02-21T11:46:56;1.63;;;0.60;;
85303;SDS011;75708;47.930;13.782;2024-02-21T11:49:21;1.38;;;0.70;;
85303;SDS011;75708;47.930;13.782;2024-02-21T11:51:57;2.28;;;0.80;;
85303;SDS011;75708;47.930;13.782;2024-02-21T11:54:29;2.95;;;0.80;;
85303;SDS011;75708;47.930;13.782;2024-02-21T11:56:55;2.58;;;1.00;;
85303;SDS011;75708;47.930;13.782;2024-02-21T11:59:21;2.38;;;0.88;;
85303;SDS011;75708;47.930;13.782;2024-02-21T12:01:47;3.28;;;1.00;;
85303;SDS011;75708;47.930;13.782;2024-02-21T12:04:13;3.05;;;0.90;;
85303;SDS011;75708;47.930;13.782;2024-02-21T12:06:39;2.75;;;1.10;;
85303;SDS011;75708;47.930;13.782;2024-02-21T12:09:07;2.65;;;1.10;;
85303;SDS011;75708;47.930;13.782;2024-02-21T12:11:36;2.88;;;0.95;;
85303;SDS011;75708;47.930;13.782;2024-02-21T12:14:02;2.50;;;1.30;;
85303;SDS011;75708;47.930;13.782;2024-02-21T12:16:30;2.15;;;0.88;;
85303;SDS011;75708;47.930;13.782;2024-02-21T12:18:56;1.95;;;0.77;;
85303;SDS011;75708;47.930;13.782;2024-02-21T12:21:26;3.13;;;1.30;;
85303;SDS011;75708;47.930;13.782;2024-02-21T12:23:56;2.25;;;0.90;;
85303;SDS011;75708;47.930;13.782;2024-02-21T12:26:22;2.05;;;0.80;;
85303;SDS011;75708;47.930;13.782;2024-02-21T12:28:48;3.55;;;1.05;;
85303;SDS011;75708;47.930;13.782;2024-02-21T12:31:13;3.05;;;1.00;;
85303;SDS011;75708;47.930;13.782;2024-02-21T12:33:39;1.60;;;0.73;;
85303;SDS011;75708;47.930;13.782;2024-02-21T12:36:05;2.00;;;0.57;;
85303;SDS011;75708;47.930;13.782;2024-02-21T12:38:30;1.45;;;0.60;;
85303;SDS011;75708;47.930;13.782;2024-02-21T12:40:56;1.70;;;0.45;;
85303;SDS011;75708;47.930;13.782;2024-02-21T12:43:25;2.58;;;0.65;;
85303;SDS011;75708;47.930;13.782;2024-02-21T12:45:51;1.10;;;0.47;;
85303;SDS011;75708;47.930;13.782;2024-02-21T12:48:17;1.00;;;0.30;;
85303;SDS011;75708;47.930;13.782;2024-02-21T12:50:52;2.33;;;0.50;;
85303;SDS011;75708;47.930;13.782;2024-02-21T12:53:18;1.05;;;0.40;;
85303;SDS011;75708;47.930;13.782;2024-02-21T12:55:46;1.55;;;0.30;;
85303;SDS011;75708;47.930;13.782;2024-02-21T12:58:13;1.02;;;0.57;;
85303;SDS011;75708;47.930;13.782;2024-02-21T13:00:39;1.30;;;0.40;;
85303;SDS011;75708;47.930;13.782;2024-02-21T13:03:05;2.70;;;0.47;;
85303;SDS011;75708;47.930;13.782;2024-02-21T13:05:31;1.40;;;0.30;;
85303;SDS011;75708;47.930;13.782;2024-02-21T13:07:59;1.35;;;0.40;;
85303;SDS011;75708;47.930;13.782;2024-02-21T13:10:25;1.67;;;0.50;;
85303;SDS011;75708;47.930;13.782;2024-02-21T13:12:50;1.58;;;0.50;;
85303;SDS011;75708;47.930;13.782;2024-02-21T13:15:16;1.25;;;0.40;;
85303;SDS011;75708;47.930;13.782;2024-02-21T13:17:43;1.40;;;0.50;;
85303;SDS011;75708;47.930;13.782;2024-02-21T13:20:09;1.55;;;0.50;;
85303;SDS011;75708;47.930;13.782;2024-02-21T13:22:36;0.75;;;0.38;;
85303;SDS011;75708;47.930;13.782;2024-02-21T13:25:02;2.25;;;0.77;;
85303;SDS011;75708;47.930;13.782;2024-02-21T13:27:28;1.52;;;0.68;;
85303;SDS011;75708;47.930;13.782;2024-02-21T13:29:53;2.08;;;0.50;;
85303;SDS011;75708;47.930;13.782;2024-02-21T13:32:19;1.88;;;0.50;;
85303;SDS011;75708;47.930;13.782;2024-02-21T13:34:44;1.88;;;0.60;;
85303;SDS011;75708;47.930;13.782;2024-02-21T13:37:10;1.80;;;0.63;;
85303;SDS011;75708;47.930;13.782;2024-02-21T13:39:36;3.35;;;0.70;;
85303;SDS011;75708;47.930;13.782;2024-02-21T13:42:02;1.02;;;0.50;;
85303;SDS011;75708;47.930;13.782;2024-02-21T13:44:30;1.35;;;0.50;;
85303;SDS011;75708;47.930;13.782;2024-02-21T13:49:25;2.25;;;0.70;;
85303;SDS011;75708;47.930;13.782;2024-02-21T13:51:50;4.07;;;0.68;;
85303;SDS011;75708;47.930;13.782;2024-02-21T13:54:16;1.40;;;0.50;;
85303;SDS011;75708;47.930;13.782;2024-02-21T13:56:44;2.25;;;0.50;;
85303;SDS011;75708;47.930;13.782;2024-02-21T13:59:11;1.67;;;0.60;;
85303;SDS011;75708;47.930;13.782;2024-02-21T14:01:38;8.05;;;0.85;;
85303;SDS011;75708;47.930;13.782;2024-02-21T14:04:03;0.90;;;0.30;;
85303;SDS011;75708;47.930;13.782;2024-02-21T14:06:29;1.38;;;0.40;;
85303;SDS011;75708;47.930;13.782;2024-02-21T14:08:55;1.55;;;0.47;;
85303;SDS011;75708;47.930;13.782;2024-02-21T14:11:20;1.77;;;0.40;;
85303;SDS011;75708;47.930;13.782;2024-02-21T14:13:46;2.00;;;0.47;;
85303;SDS011;75708;47.930;13.782;2024-02-21T14:16:11;2.88;;;0.40;;
85303;SDS011;75708;47.930;13.782;2024-02-21T14:18:42;2.75;;;0.60;;
85303;SDS011;75708;47.930;13.782;2024-02-21T14:21:08;3.30;;;0.47;;
85303;SDS011;75708;47.930;13.782;2024-02-21T14:26:03;4.07;;;0.65;;
85303;SDS011;75708;47.930;13.782;2024-02-21T14:28:29;2.03;;;0.45;;
85303;SDS011;75708;47.930;13.782;2024-02-21T14:30:55;1.00;;;0.35;;
85303;SDS011;75708;47.930;13.782;2024-02-21T14:33:25;2.85;;;0.55;;
85303;SDS011;75708;47.930;13.782;2024-02-21T14:35:54;1.60;;;0.32;;
85303;SDS011;75708;47.930;13.782;2024-02-21T14:38:19;4.30;;;0.70;;
85303;SDS011;75708;47.930;13.782;2024-02-21T14:40:45;3.00;;;0.57;;
85303;SDS011;75708;47.930;13.782;2024-02-21T14:43:10;0.70;;;0.30;;
85303;SDS011;75708;47.930;13.782;2024-02-21T14:45:36;1.35;;;0.40;;